sensor_id;sensor_type;location;lat;lon;timestamp;temperature;humidity
2935;DHT22;2462;51.456;7.248;2022-12-16T00:01:30;-2.30;99.90
2935;DHT22;2462;51.456;7.248;2022-12-16T00:03:56;-2.30;99.90
2935;DHT22;2462;51.456;7.248;2022-12-16T00:06:24;-2.10;99.90
2935;DHT22;2462;51.456;7.248;2022-12-16T00:08:50;-2.30;99.90
2935;DHT22;2462;51.456;7.248;2022-12-16T00:11:15;-2.30;99.90
2935;DHT22;2462;51.456;7.248;2022-12-16T00:13:41;-2.30;99.90
2935;DHT22;2462;51.456;7.248;2022-12-16T00:16:09;-2.30;99.90
2935;DHT22;2462;51.456;7.248;2022-12-16T00:18:35;-2.30;99.90
2935;DHT22;2462;51.456;7.248;2022-12-16T00:21:02;-2.30;99.90
2935;DHT22;2462;51.456;7.248;2022-12-16T00:23:28;-2.40;99.90
2935;DHT22;2462;51.456;7.248;2022-12-16T00:25:54;-2.40;99.90
2935;DHT22;2462;51.456;7.248;2022-12-16T00:28:19;-2.40;99.90
2935;DHT22;2462;51.456;7.248;2022-12-16T00:30:49;-2.40;99.90
2935;DHT22;2462;51.456;7.248;2022-12-16T00:33:15;-2.40;99.90
2935;DHT22;2462;51.456;7.248;2022-12-16T00:35:42;-2.40;99.90
2935;DHT22;2462;51.456;7.248;2022-12-16T00:38:08;-2.40;99.90
2935;DHT22;2462;51.456;7.248;2022-12-16T00:40:33;-2.50;99.90
2935;DHT22;2462;51.456;7.248;2022-12-16T00:42:59;-2.50;99.90
2935;DHT22;2462;51.456;7.248;2022-12-16T00:45:24;-2.50;99.90
2935;DHT22;2462;51.456;7.248;2022-12-16T00:47:50;-2.50;99.90
2935;DHT22;2462;51.456;7.248;2022-12-16T00:50:16;-2.50;99.90
2935;DHT22;2462;51.456;7.248;2022-12-16T00:52:42;-2.50;99.90
2935;DHT22;2462;51.456;7.248;2022-12-16T00:55:07;-2.50;99.90
2935;DHT22;2462;51.456;7.248;2022-12-16T00:57:33;-2.60;99.90
2935;DHT22;2462;51.456;7.248;2022-12-16T00:59:59;-2.60;99.90
2935;DHT22;2462;51.456;7.248;2022-12-16T01:02:25;-2.60;99.90
2935;DHT22;2462;51.456;7.248;2022-12-16T01:04:50;-2.60;99.90
2935;DHT22;2462;51.456;7.248;2022-12-16T01:07:16;-2.60;99.90
2935;DHT22;2462;51.456;7.248;2022-12-16T01:09:41;-2.70;99.90
2935;DHT22;2462;51.456;7.248;2022-12-16T01:12:07;-2.70;99.90
2935;DHT22;2462;51.456;7.248;2022-12-16T01:14:33;-2.70;99.90
2935;DHT22;2462;51.456;7.248;2022-12-16T01:16:58;-2.70;99.90
2935;DHT22;2462;51.456;7.248;2022-12-16T01:19:24;-2.70;99.90
2935;DHT22;2462;51.456;7.248;2022-12-16T01:21:50;-2.70;99.90
2935;DHT22;2462;51.456;7.248;2022-12-16T01:24:15;-2.70;99.90
2935;DHT22;2462;51.456;7.248;2022-12-16T01:26:41;-2.70;99.90
2935;DHT22;2462;51.456;7.248;2022-12-16T01:29:06;-2.70;99.90
2935;DHT22;2462;51.456;7.248;2022-12-16T01:31:32;-2.70;99.90
2935;DHT22;2462;51.456;7.248;2022-12-16T01:33:57;-2.70;99.90
2935;DHT22;2462;51.456;7.248;2022-12-16T01:36:23;-2.70;99.90
2935;DHT22;2462;51.456;7.248;2022-12-16T01:38:49;-1.40;99.90
2935;DHT22;2462;51.456;7.248;2022-12-16T01:41:15;-2.70;99.90
2935;DHT22;2462;51.456;7.248;2022-12-16T01:43:42;-2.70;99.90
2935;DHT22;2462;51.456;7.248;2022-12-16T01:51:32;-2.80;99.90
2935;DHT22;2462;51.456;7.248;2022-12-16T01:54:08;-2.80;99.90
2935;DHT22;2462;51.456;7.248;2022-12-16T01:56:39;-2.80;99.90
2935;DHT22;2462;51.456;7.248;2022-12-16T01:59:06;-2.80;99.90
2935;DHT22;2462;51.456;7.248;2022-12-16T02:01:33;-2.90;99.90
2935;DHT22;2462;51.456;7.248;2022-12-16T02:04:01;-2.90;99.90
2935;DHT22;2462;51.456;7.248;2022-12-16T02:06:27;-2.90;99.90
2935;DHT22;2462;51.456;7.248;2022-12-16T02:08:56;-2.90;99.90
2935;DHT22;2462;51.456;7.248;2022-12-16T02:16:54;-2.90;99.90
2935;DHT22;2462;51.456;7.248;2022-12-16T02:20:01;-3.00;99.90
2935;DHT22;2462;51.456;7.248;2022-12-16T02:28:19;-2.60;99.90
2935;DHT22;2462;51.456;7.248;2022-12-16T02:31:23;-3.00;99.90
2935;DHT22;2462;51.456;7.248;2022-12-16T02:34:15;-3.00;99.90
2935;DHT22;2462;51.456;7.248;2022-12-16T02:37:04;-3.00;99.90
2935;DHT22;2462;51.456;7.248;2022-12-16T02:39:37;-3.00;99.90
2935;DHT22;2462;51.456;7.248;2022-12-16T02:42:14;-3.00;99.90
2935;DHT22;2462;51.456;7.248;2022-12-16T02:45:03;-3.00;99.90
2935;DHT22;2462;51.456;7.248;2022-12-16T02:47:30;-3.00;99.90
2935;DHT22;2462;51.456;7.248;2022-12-16T02:49:56;-3.00;99.90
2935;DHT22;2462;51.456;7.248;2022-12-16T02:52:24;-3.00;99.90
2935;DHT22;2462;51.456;7.248;2022-12-16T02:54:55;-3.00;99.90
2935;DHT22;2462;51.456;7.248;2022-12-16T03:00:08;-3.00;99.90
2935;DHT22;2462;51.456;7.248;2022-12-16T03:03:01;-3.00;99.90
2935;DHT22;2462;51.456;7.248;2022-12-16T03:05:41;-3.00;99.90
2935;DHT22;2462;51.456;7.248;2022-12-16T03:08:13;-3.00;99.90
2935;DHT22;2462;51.456;7.248;2022-12-16T03:10:43;-3.10;99.90
2935;DHT22;2462;51.456;7.248;2022-12-16T03:13:10;-3.10;99.90
2935;DHT22;2462;51.456;7.248;2022-12-16T03:15:38;-3.10;99.90
2935;DHT22;2462;51.456;7.248;2022-12-16T03:18:07;-3.10;99.90
2935;DHT22;2462;51.456;7.248;2022-12-16T03:21:00;-2.90;99.90
2935;DHT22;2462;51.456;7.248;2022-12-16T03:23:44;-3.10;99.90
2935;DHT22;2462;51.456;7.248;2022-12-16T03:26:16;-3.80;99.90
2935;DHT22;2462;51.456;7.248;2022-12-16T03:31:37;-3.10;99.90
2935;DHT22;2462;51.456;7.248;2022-12-16T03:36:59;-3.20;99.90
2935;DHT22;2462;51.456;7.248;2022-12-16T03:39:26;-3.20;99.90
2935;DHT22;2462;51.456;7.248;2022-12-16T03:41:52;-3.20;99.90
2935;DHT22;2462;51.456;7.248;2022-12-16T03:44:21;-3.20;99.90
2935;DHT22;2462;51.456;7.248;2022-12-16T03:46:47;-3.20;99.90
2935;DHT22;2462;51.456;7.248;2022-12-16T03:49:13;-3.20;99.90
2935;DHT22;2462;51.456;7.248;2022-12-16T03:51:39;-3.20;99.90
2935;DHT22;2462;51.456;7.248;2022-12-16T03:54:04;-3.20;99.90
2935;DHT22;2462;51.456;7.248;2022-12-16T03:56:30;-3.20;99.90
2935;DHT22;2462;51.456;7.248;2022-12-16T03:58:55;-3.20;99.90
2935;DHT22;2462;51.456;7.248;2022-12-16T04:01:21;-3.20;99.90
2935;DHT22;2462;51.456;7.248;2022-12-16T04:03:47;-3.20;99.90
2935;DHT22;2462;51.456;7.248;2022-12-16T04:06:13;-3.20;99.90
2935;DHT22;2462;51.456;7.248;2022-12-16T04:08:45;-3.20;99.90
2935;DHT22;2462;51.456;7.248;2022-12-16T04:11:12;-3.20;99.90
2935;DHT22;2462;51.456;7.248;2022-12-16T04:13:56;-3.20;99.90
2935;DHT22;2462;51.456;7.248;2022-12-16T04:16:40;-3.30;99.90
2935;DHT22;2462;51.456;7.248;2022-12-16T04:19:30;-3.30;99.90
2935;DHT22;2462;51.456;7.248;2022-12-16T04:25:11;-3.30;99.90
2935;DHT22;2462;51.456;7.248;2022-12-16T04:27:38;-3.30;99.90
2935;DHT22;2462;51.456;7.248;2022-12-16T04:30:04;-3.30;99.90
2935;DHT22;2462;51.456;7.248;2022-12-16T04:32:50;-3.30;99.90
2935;DHT22;2462;51.456;7.248;2022-12-16T04:35:34;-3.30;99.90
2935;DHT22;2462;51.456;7.248;2022-12-16T04:38:19;-3.30;99.90
2935;DHT22;2462;51.456;7.248;2022-12-16T04:41:03;-3.30;99.90
2935;DHT22;2462;51.456;7.248;2022-12-16T04:43:51;-3.30;99.90
2935;DHT22;2462;51.456;7.248;2022-12-16T04:46:35;-3.30;99.90
2935;DHT22;2462;51.456;7.248;2022-12-16T04:49:19;-3.30;99.90
2935;DHT22;2462;51.456;7.248;2022-12-16T04:52:04;-3.30;99.90
2935;DHT22;2462;51.456;7.248;2022-12-16T04:54:48;-3.40;99.90
2935;DHT22;2462;51.456;7.248;2022-12-16T04:57:32;-3.30;99.90
2935;DHT22;2462;51.456;7.248;2022-12-16T05:00:16;-3.40;99.90
2935;DHT22;2462;51.456;7.248;2022-12-16T05:03:00;-3.40;99.90
2935;DHT22;2462;51.456;7.248;2022-12-16T05:05:44;-3.40;99.90
2935;DHT22;2462;51.456;7.248;2022-12-16T05:08:29;-3.40;99.90
2935;DHT22;2462;51.456;7.248;2022-12-16T05:11:13;-3.40;99.90
2935;DHT22;2462;51.456;7.248;2022-12-16T05:13:57;-3.40;99.90
2935;DHT22;2462;51.456;7.248;2022-12-16T05:16:41;-3.40;99.90
2935;DHT22;2462;51.456;7.248;2022-12-16T05:19:25;-3.40;99.90
2935;DHT22;2462;51.456;7.248;2022-12-16T05:22:09;-3.40;99.90
2935;DHT22;2462;51.456;7.248;2022-12-16T05:24:53;-3.40;99.90
2935;DHT22;2462;51.456;7.248;2022-12-16T05:27:38;-3.40;99.90
2935;DHT22;2462;51.456;7.248;2022-12-16T05:30:22;-3.40;99.90
2935;DHT22;2462;51.456;7.248;2022-12-16T05:33:06;-3.40;99.90
2935;DHT22;2462;51.456;7.248;2022-12-16T05:35:50;-3.50;99.90
2935;DHT22;2462;51.456;7.248;2022-12-16T05:38:34;-3.40;99.90
2935;DHT22;2462;51.456;7.248;2022-12-16T05:41:18;-3.50;99.90
2935;DHT22;2462;51.456;7.248;2022-12-16T05:44:02;-3.50;99.90
2935;DHT22;2462;51.456;7.248;2022-12-16T05:46:46;-3.50;99.90
2935;DHT22;2462;51.456;7.248;2022-12-16T05:49:30;-3.50;99.90
2935;DHT22;2462;51.456;7.248;2022-12-16T05:52:14;-3.50;99.90
2935;DHT22;2462;51.456;7.248;2022-12-16T05:54:58;-3.50;99.90
2935;DHT22;2462;51.456;7.248;2022-12-16T05:57:42;-3.50;99.90
2935;DHT22;2462;51.456;7.248;2022-12-16T06:00:26;-3.50;99.90
2935;DHT22;2462;51.456;7.248;2022-12-16T06:03:11;-3.50;99.90
2935;DHT22;2462;51.456;7.248;2022-12-16T06:05:55;-3.50;99.90
2935;DHT22;2462;51.456;7.248;2022-12-16T06:08:39;-3.50;99.90
2935;DHT22;2462;51.456;7.248;2022-12-16T06:11:23;-3.50;99.90
2935;DHT22;2462;51.456;7.248;2022-12-16T06:14:07;-3.50;99.90
2935;DHT22;2462;51.456;7.248;2022-12-16T06:16:51;-3.50;99.90
2935;DHT22;2462;51.456;7.248;2022-12-16T06:19:35;-3.50;99.90
2935;DHT22;2462;51.456;7.248;2022-12-16T06:22:19;-3.50;99.90
2935;DHT22;2462;51.456;7.248;2022-12-16T06:25:04;-3.50;99.90
2935;DHT22;2462;51.456;7.248;2022-12-16T06:27:51;-3.50;99.90
2935;DHT22;2462;51.456;7.248;2022-12-16T06:30:36;-3.50;99.90
2935;DHT22;2462;51.456;7.248;2022-12-16T06:33:21;-3.40;99.90
2935;DHT22;2462;51.456;7.248;2022-12-16T06:36:06;-3.50;99.90
2935;DHT22;2462;51.456;7.248;2022-12-16T06:38:50;-3.50;99.90
2935;DHT22;2462;51.456;7.248;2022-12-16T06:41:34;-3.50;99.90
2935;DHT22;2462;51.456;7.248;2022-12-16T06:44:19;-3.40;99.90
2935;DHT22;2462;51.456;7.248;2022-12-16T06:47:03;-3.40;99.90
2935;DHT22;2462;51.456;7.248;2022-12-16T06:49:47;-3.40;99.90
2935;DHT22;2462;51.456;7.248;2022-12-16T06:52:31;-3.50;99.90
2935;DHT22;2462;51.456;7.248;2022-12-16T06:55:15;-3.50;99.90
2935;DHT22;2462;51.456;7.248;2022-12-16T06:57:59;-3.50;99.90
2935;DHT22;2462;51.456;7.248;2022-12-16T07:00:44;-3.50;99.90
2935;DHT22;2462;51.456;7.248;2022-12-16T07:03:28;-3.50;99.90
2935;DHT22;2462;51.456;7.248;2022-12-16T07:06:13;-3.50;99.90
2935;DHT22;2462;51.456;7.248;2022-12-16T07:08:57;-3.50;99.90
2935;DHT22;2462;51.456;7.248;2022-12-16T07:11:41;-3.50;99.90
2935;DHT22;2462;51.456;7.248;2022-12-16T07:14:25;-3.50;99.90
2935;DHT22;2462;51.456;7.248;2022-12-16T07:17:09;-3.50;99.90
2935;DHT22;2462;51.456;7.248;2022-12-16T07:19:53;-3.50;99.90
2935;DHT22;2462;51.456;7.248;2022-12-16T07:22:42;-3.50;99.90
2935;DHT22;2462;51.456;7.248;2022-12-16T07:25:25;-3.50;99.90
2935;DHT22;2462;51.456;7.248;2022-12-16T07:28:10;-3.50;99.90
2935;DHT22;2462;51.456;7.248;2022-12-16T07:30:54;-3.50;99.90
2935;DHT22;2462;51.456;7.248;2022-12-16T07:33:38;-3.50;99.90
2935;DHT22;2462;51.456;7.248;2022-12-16T07:36:22;-3.50;99.90
2935;DHT22;2462;51.456;7.248;2022-12-16T07:39:06;-3.50;99.90
2935;DHT22;2462;51.456;7.248;2022-12-16T07:41:50;-3.50;99.90
2935;DHT22;2462;51.456;7.248;2022-12-16T07:44:34;-3.50;99.90
2935;DHT22;2462;51.456;7.248;2022-12-16T07:47:18;-3.50;99.90
2935;DHT22;2462;51.456;7.248;2022-12-16T07:50:02;-3.60;99.90
2935;DHT22;2462;51.456;7.248;2022-12-16T07:52:53;-3.50;99.90
2935;DHT22;2462;51.456;7.248;2022-12-16T07:55:37;-3.50;99.90
2935;DHT22;2462;51.456;7.248;2022-12-16T07:58:21;-3.50;99.90
2935;DHT22;2462;51.456;7.248;2022-12-16T08:01:05;-3.50;99.90
2935;DHT22;2462;51.456;7.248;2022-12-16T08:03:49;-3.60;99.90
2935;DHT22;2462;51.456;7.248;2022-12-16T08:06:33;-3.60;99.90
2935;DHT22;2462;51.456;7.248;2022-12-16T08:09:17;-3.50;99.90
2935;DHT22;2462;51.456;7.248;2022-12-16T08:12:01;-3.60;99.90
2935;DHT22;2462;51.456;7.248;2022-12-16T08:14:45;-3.50;99.90
2935;DHT22;2462;51.456;7.248;2022-12-16T08:17:29;-3.60;99.90
2935;DHT22;2462;51.456;7.248;2022-12-16T08:20:13;-3.60;99.90
2935;DHT22;2462;51.456;7.248;2022-12-16T08:22:57;-3.60;99.90
2935;DHT22;2462;51.456;7.248;2022-12-16T08:25:41;-3.10;99.90
2935;DHT22;2462;51.456;7.248;2022-12-16T08:28:25;-3.50;99.90
2935;DHT22;2462;51.456;7.248;2022-12-16T08:31:09;-3.50;99.90
2935;DHT22;2462;51.456;7.248;2022-12-16T08:33:53;-3.50;99.90
2935;DHT22;2462;51.456;7.248;2022-12-16T08:36:37;-3.50;99.90
2935;DHT22;2462;51.456;7.248;2022-12-16T08:39:21;-3.50;99.90
2935;DHT22;2462;51.456;7.248;2022-12-16T08:42:05;-3.50;99.90
2935;DHT22;2462;51.456;7.248;2022-12-16T08:44:49;-3.50;99.90
2935;DHT22;2462;51.456;7.248;2022-12-16T08:47:34;-3.50;99.90
2935;DHT22;2462;51.456;7.248;2022-12-16T08:50:18;-3.50;99.90
2935;DHT22;2462;51.456;7.248;2022-12-16T08:53:02;-3.50;99.90
2935;DHT22;2462;51.456;7.248;2022-12-16T08:55:46;-3.50;99.90
2935;DHT22;2462;51.456;7.248;2022-12-16T08:58:30;-3.50;99.90
2935;DHT22;2462;51.456;7.248;2022-12-16T09:01:14;-3.50;99.90
2935;DHT22;2462;51.456;7.248;2022-12-16T09:03:58;-3.50;99.90
2935;DHT22;2462;51.456;7.248;2022-12-16T09:06:42;-3.50;99.90
2935;DHT22;2462;51.456;7.248;2022-12-16T09:09:26;-3.50;99.90
2935;DHT22;2462;51.456;7.248;2022-12-16T09:12:10;-3.50;99.90
2935;DHT22;2462;51.456;7.248;2022-12-16T09:14:54;-3.40;99.90
2935;DHT22;2462;51.456;7.248;2022-12-16T09:17:38;-3.40;99.90
2935;DHT22;2462;51.456;7.248;2022-12-16T09:20:22;-3.40;99.90
2935;DHT22;2462;51.456;7.248;2022-12-16T09:23:07;-3.40;99.90
2935;DHT22;2462;51.456;7.248;2022-12-16T09:25:51;-3.40;99.90
2935;DHT22;2462;51.456;7.248;2022-12-16T09:28:35;-3.30;99.90
2935;DHT22;2462;51.456;7.248;2022-12-16T09:31:19;-3.30;99.90
2935;DHT22;2462;51.456;7.248;2022-12-16T09:34:03;-3.30;99.90
2935;DHT22;2462;51.456;7.248;2022-12-16T09:36:47;-3.20;99.90
2935;DHT22;2462;51.456;7.248;2022-12-16T09:39:31;-3.20;99.90
2935;DHT22;2462;51.456;7.248;2022-12-16T09:51:12;-3.10;99.90
2935;DHT22;2462;51.456;7.248;2022-12-16T09:53:59;-3.10;99.90
2935;DHT22;2462;51.456;7.248;2022-12-16T09:56:44;-3.10;99.90
2935;DHT22;2462;51.456;7.248;2022-12-16T09:59:36;-3.10;99.90
2935;DHT22;2462;51.456;7.248;2022-12-16T10:02:24;-3.00;99.90
2935;DHT22;2462;51.456;7.248;2022-12-16T10:05:14;-3.00;99.90
2935;DHT22;2462;51.456;7.248;2022-12-16T10:08:27;-3.00;99.90
2935;DHT22;2462;51.456;7.248;2022-12-16T10:14:23;-3.00;99.90
2935;DHT22;2462;51.456;7.248;2022-12-16T10:17:21;-3.00;99.90
2935;DHT22;2462;51.456;7.248;2022-12-16T10:23:17;-3.00;99.90
2935;DHT22;2462;51.456;7.248;2022-12-16T10:26:19;-2.90;99.90
2935;DHT22;2462;51.456;7.248;2022-12-16T10:29:27;-2.90;99.90
2935;DHT22;2462;51.456;7.248;2022-12-16T10:32:18;-2.90;99.90
2935;DHT22;2462;51.456;7.248;2022-12-16T10:35:04;-2.90;99.90
2935;DHT22;2462;51.456;7.248;2022-12-16T10:37:57;-2.80;99.90
2935;DHT22;2462;51.456;7.248;2022-12-16T10:40:42;-2.80;99.90
2935;DHT22;2462;51.456;7.248;2022-12-16T10:43:36;-2.80;99.90
2935;DHT22;2462;51.456;7.248;2022-12-16T10:46:25;-2.80;99.90
2935;DHT22;2462;51.456;7.248;2022-12-16T10:49:13;-2.70;99.90
2935;DHT22;2462;51.456;7.248;2022-12-16T10:51:59;-2.70;99.90
2935;DHT22;2462;51.456;7.248;2022-12-16T10:55:53;-2.70;99.90
2935;DHT22;2462;51.456;7.248;2022-12-16T10:58:15;-2.70;99.90
2935;DHT22;2462;51.456;7.248;2022-12-16T11:01:22;-2.70;99.90
2935;DHT22;2462;51.456;7.248;2022-12-16T11:04:35;-2.60;99.90
2935;DHT22;2462;51.456;7.248;2022-12-16T11:07:33;-2.60;99.90
2935;DHT22;2462;51.456;7.248;2022-12-16T11:10:31;-2.60;99.90
2935;DHT22;2462;51.456;7.248;2022-12-16T11:16:12;-2.60;99.90
2935;DHT22;2462;51.456;7.248;2022-12-16T11:18:57;-2.50;99.90
2935;DHT22;2462;51.456;7.248;2022-12-16T11:21:41;-2.50;99.90
2935;DHT22;2462;51.456;7.248;2022-12-16T11:24:26;-2.50;99.90
2935;DHT22;2462;51.456;7.248;2022-12-16T11:27:24;-2.50;99.90
2935;DHT22;2462;51.456;7.248;2022-12-16T11:32:58;-2.40;99.90
2935;DHT22;2462;51.456;7.248;2022-12-16T11:35:47;-2.40;99.90
2935;DHT22;2462;51.456;7.248;2022-12-16T11:38:45;-2.40;99.90
2935;DHT22;2462;51.456;7.248;2022-12-16T11:41:34;-2.30;99.90
2935;DHT22;2462;51.456;7.248;2022-12-16T11:44:35;-2.30;99.90
2935;DHT22;2462;51.456;7.248;2022-12-16T11:50:27;-2.30;99.90
2935;DHT22;2462;51.456;7.248;2022-12-16T11:53:29;-2.20;99.90
2935;DHT22;2462;51.456;7.248;2022-12-16T11:56:21;-2.30;99.90
2935;DHT22;2462;51.456;7.248;2022-12-16T11:59:15;-2.20;99.90
2935;DHT22;2462;51.456;7.248;2022-12-16T12:02:07;-2.20;99.90
2935;DHT22;2462;51.456;7.248;2022-12-16T12:04:55;-2.20;99.90
2935;DHT22;2462;51.456;7.248;2022-12-16T12:07:57;-2.20;99.90
2935;DHT22;2462;51.456;7.248;2022-12-16T12:10:58;-2.20;99.90
2935;DHT22;2462;51.456;7.248;2022-12-16T12:14:14;-2.10;99.90
2935;DHT22;2462;51.456;7.248;2022-12-16T12:17:46;-2.10;99.90
2935;DHT22;2462;51.456;7.248;2022-12-16T12:20:46;-2.00;99.90
2935;DHT22;2462;51.456;7.248;2022-12-16T12:26:47;-2.00;99.90
2935;DHT22;2462;51.456;7.248;2022-12-16T12:36:03;-1.90;99.90
2935;DHT22;2462;51.456;7.248;2022-12-16T12:39:17;-1.90;99.90
2935;DHT22;2462;51.456;7.248;2022-12-16T12:48:20;-1.90;99.90
2935;DHT22;2462;51.456;7.248;2022-12-16T12:51:19;-1.80;99.90
2935;DHT22;2462;51.456;7.248;2022-12-16T12:54:21;-1.90;99.90
2935;DHT22;2462;51.456;7.248;2022-12-16T12:57:08;-1.90;99.90
2935;DHT22;2462;51.456;7.248;2022-12-16T13:00:02;-1.80;99.90
2935;DHT22;2462;51.456;7.248;2022-12-16T13:05:46;-1.80;99.90
2935;DHT22;2462;51.456;7.248;2022-12-16T13:11:22;-1.70;99.90
2935;DHT22;2462;51.456;7.248;2022-12-16T13:20:55;-1.70;99.90
2935;DHT22;2462;51.456;7.248;2022-12-16T13:23:41;-1.60;99.90
2935;DHT22;2462;51.456;7.248;2022-12-16T13:26:29;-1.60;99.90
2935;DHT22;2462;51.456;7.248;2022-12-16T13:29:23;-1.60;99.90
2935;DHT22;2462;51.456;7.248;2022-12-16T13:35:01;-1.50;99.90
2935;DHT22;2462;51.456;7.248;2022-12-16T13:38:19;-1.50;99.90
2935;DHT22;2462;51.456;7.248;2022-12-16T13:41:05;-1.50;99.90
2935;DHT22;2462;51.456;7.248;2022-12-16T13:43:54;-1.50;99.90
2935;DHT22;2462;51.456;7.248;2022-12-16T13:55:54;-1.40;99.90
2935;DHT22;2462;51.456;7.248;2022-12-16T13:58:46;-1.50;99.90
2935;DHT22;2462;51.456;7.248;2022-12-16T14:01:40;-1.40;99.90
2935;DHT22;2462;51.456;7.248;2022-12-16T14:04:30;-1.40;99.90
2935;DHT22;2462;51.456;7.248;2022-12-16T14:07:16;-1.40;99.90
2935;DHT22;2462;51.456;7.248;2022-12-16T14:10:01;-1.40;99.90
2935;DHT22;2462;51.456;7.248;2022-12-16T14:16:14;-1.40;99.90
2935;DHT22;2462;51.456;7.248;2022-12-16T14:19:10;-1.40;99.90
2935;DHT22;2462;51.456;7.248;2022-12-16T14:25:22;-1.40;99.90
2935;DHT22;2462;51.456;7.248;2022-12-16T14:28:35;-1.40;99.90
2935;DHT22;2462;51.456;7.248;2022-12-16T14:31:40;-1.40;99.90
2935;DHT22;2462;51.456;7.248;2022-12-16T14:40:01;-1.40;99.90
2935;DHT22;2462;51.456;7.248;2022-12-16T14:42:49;-1.40;99.90
2935;DHT22;2462;51.456;7.248;2022-12-16T14:45:36;-1.40;99.90
2935;DHT22;2462;51.456;7.248;2022-12-16T14:48:21;-1.40;99.90
2935;DHT22;2462;51.456;7.248;2022-12-16T14:51:26;-1.40;99.90
2935;DHT22;2462;51.456;7.248;2022-12-16T14:54:24;-1.40;99.90
2935;DHT22;2462;51.456;7.248;2022-12-16T14:57:28;-1.40;99.90
2935;DHT22;2462;51.456;7.248;2022-12-16T15:00:15;-1.40;99.90
2935;DHT22;2462;51.456;7.248;2022-12-16T15:03:22;-1.40;99.90
2935;DHT22;2462;51.456;7.248;2022-12-16T15:06:16;-1.50;99.90
2935;DHT22;2462;51.456;7.248;2022-12-16T15:09:03;-1.40;99.90
2935;DHT22;2462;51.456;7.248;2022-12-16T15:11:51;-1.50;99.90
2935;DHT22;2462;51.456;7.248;2022-12-16T15:14:38;-1.50;99.90
2935;DHT22;2462;51.456;7.248;2022-12-16T15:17:36;-1.50;99.90
2935;DHT22;2462;51.456;7.248;2022-12-16T15:20:26;-1.50;99.90
2935;DHT22;2462;51.456;7.248;2022-12-16T15:23:23;-1.50;99.90
2935;DHT22;2462;51.456;7.248;2022-12-16T15:26:16;-1.50;99.90
2935;DHT22;2462;51.456;7.248;2022-12-16T15:29:01;-1.50;99.90
2935;DHT22;2462;51.456;7.248;2022-12-16T15:31:45;-1.50;99.90
2935;DHT22;2462;51.456;7.248;2022-12-16T15:34:47;-1.50;99.90
2935;DHT22;2462;51.456;7.248;2022-12-16T15:37:40;-1.50;99.90
2935;DHT22;2462;51.456;7.248;2022-12-16T15:40:28;-1.50;99.90
2935;DHT22;2462;51.456;7.248;2022-12-16T15:43:27;-1.50;99.90
2935;DHT22;2462;51.456;7.248;2022-12-16T15:46:24;-1.50;99.90
2935;DHT22;2462;51.456;7.248;2022-12-16T15:52:01;-1.50;99.90
2935;DHT22;2462;51.456;7.248;2022-12-16T15:54:51;-1.40;99.90
2935;DHT22;2462;51.456;7.248;2022-12-16T15:57:36;-1.50;99.90
2935;DHT22;2462;51.456;7.248;2022-12-16T16:00:29;-1.50;99.90
2935;DHT22;2462;51.456;7.248;2022-12-16T16:03:28;-1.50;99.90
2935;DHT22;2462;51.456;7.248;2022-12-16T16:09:10;-1.50;99.90
2935;DHT22;2462;51.456;7.248;2022-12-16T16:11:54;-1.50;99.90
2935;DHT22;2462;51.456;7.248;2022-12-16T16:14:38;-1.50;99.90
2935;DHT22;2462;51.456;7.248;2022-12-16T16:17:22;-1.50;99.90
2935;DHT22;2462;51.456;7.248;2022-12-16T16:20:12;-1.50;99.90
2935;DHT22;2462;51.456;7.248;2022-12-16T16:22:57;-1.50;99.90
2935;DHT22;2462;51.456;7.248;2022-12-16T16:25:42;-1.50;99.90
2935;DHT22;2462;51.456;7.248;2022-12-16T16:28:26;-1.50;99.90
2935;DHT22;2462;51.456;7.248;2022-12-16T16:31:10;-1.50;99.90
2935;DHT22;2462;51.456;7.248;2022-12-16T16:33:54;-1.50;99.90
2935;DHT22;2462;51.456;7.248;2022-12-16T16:36:38;-1.40;99.90
2935;DHT22;2462;51.456;7.248;2022-12-16T16:39:22;-1.50;99.90
2935;DHT22;2462;51.456;7.248;2022-12-16T16:42:20;-1.50;99.90
2935;DHT22;2462;51.456;7.248;2022-12-16T16:45:06;-1.50;99.90
2935;DHT22;2462;51.456;7.248;2022-12-16T16:48:00;-1.50;99.90
2935;DHT22;2462;51.456;7.248;2022-12-16T16:50:57;-1.50;99.90
2935;DHT22;2462;51.456;7.248;2022-12-16T16:53:41;-1.50;99.90
2935;DHT22;2462;51.456;7.248;2022-12-16T16:56:27;-1.50;99.90
2935;DHT22;2462;51.456;7.248;2022-12-16T16:59:13;-1.50;99.90
2935;DHT22;2462;51.456;7.248;2022-12-16T17:01:57;-1.50;99.90
2935;DHT22;2462;51.456;7.248;2022-12-16T17:04:41;-1.50;99.90
2935;DHT22;2462;51.456;7.248;2022-12-16T17:07:25;-1.50;99.90
2935;DHT22;2462;51.456;7.248;2022-12-16T17:10:09;-1.50;99.90
2935;DHT22;2462;51.456;7.248;2022-12-16T17:12:54;-1.40;99.90
2935;DHT22;2462;51.456;7.248;2022-12-16T17:15:38;-1.50;99.90
2935;DHT22;2462;51.456;7.248;2022-12-16T17:18:22;-1.50;99.90
2935;DHT22;2462;51.456;7.248;2022-12-16T17:21:06;-1.50;99.90
2935;DHT22;2462;51.456;7.248;2022-12-16T17:23:50;-1.50;99.90
2935;DHT22;2462;51.456;7.248;2022-12-16T17:26:34;-1.50;99.90
2935;DHT22;2462;51.456;7.248;2022-12-16T17:29:24;-1.50;99.90
2935;DHT22;2462;51.456;7.248;2022-12-16T17:32:09;-1.50;99.90
2935;DHT22;2462;51.456;7.248;2022-12-16T17:34:53;-1.50;99.90
2935;DHT22;2462;51.456;7.248;2022-12-16T17:37:37;-1.50;99.90
2935;DHT22;2462;51.456;7.248;2022-12-16T17:40:22;-1.50;99.90
2935;DHT22;2462;51.456;7.248;2022-12-16T17:43:06;-1.50;99.90
2935;DHT22;2462;51.456;7.248;2022-12-16T17:46:03;-1.60;99.90
2935;DHT22;2462;51.456;7.248;2022-12-16T17:48:51;-1.50;99.90
2935;DHT22;2462;51.456;7.248;2022-12-16T17:51:36;-1.60;99.90
2935;DHT22;2462;51.456;7.248;2022-12-16T17:54:20;-1.60;99.90
2935;DHT22;2462;51.456;7.248;2022-12-16T17:57:04;-1.60;99.90
2935;DHT22;2462;51.456;7.248;2022-12-16T17:59:48;-1.60;99.90
2935;DHT22;2462;51.456;7.248;2022-12-16T18:02:32;-1.60;99.90
2935;DHT22;2462;51.456;7.248;2022-12-16T18:05:16;-1.60;99.90
2935;DHT22;2462;51.456;7.248;2022-12-16T18:08:00;-1.60;99.90
2935;DHT22;2462;51.456;7.248;2022-12-16T18:10:45;-1.60;99.90
2935;DHT22;2462;51.456;7.248;2022-12-16T18:13:29;-1.60;99.90
2935;DHT22;2462;51.456;7.248;2022-12-16T18:16:13;-1.50;99.90
2935;DHT22;2462;51.456;7.248;2022-12-16T18:18:57;-1.60;99.90
2935;DHT22;2462;51.456;7.248;2022-12-16T18:21:41;-1.60;99.90
2935;DHT22;2462;51.456;7.248;2022-12-16T18:24:26;-2.00;99.90
2935;DHT22;2462;51.456;7.248;2022-12-16T18:27:11;-1.60;99.90
2935;DHT22;2462;51.456;7.248;2022-12-16T18:29:55;-1.60;99.90
2935;DHT22;2462;51.456;7.248;2022-12-16T18:32:39;-1.60;99.90
2935;DHT22;2462;51.456;7.248;2022-12-16T18:35:24;-1.60;99.90
2935;DHT22;2462;51.456;7.248;2022-12-16T18:38:09;-1.60;99.90
2935;DHT22;2462;51.456;7.248;2022-12-16T18:41:01;-1.60;99.90
2935;DHT22;2462;51.456;7.248;2022-12-16T18:43:45;-1.60;99.90
2935;DHT22;2462;51.456;7.248;2022-12-16T18:46:29;-1.60;99.90
2935;DHT22;2462;51.456;7.248;2022-12-16T18:49:13;-1.60;99.90
2935;DHT22;2462;51.456;7.248;2022-12-16T18:51:57;-1.60;99.90
2935;DHT22;2462;51.456;7.248;2022-12-16T18:54:41;-1.60;99.90
2935;DHT22;2462;51.456;7.248;2022-12-16T18:57:25;-1.50;99.90
2935;DHT22;2462;51.456;7.248;2022-12-16T19:00:10;-1.50;99.90
2935;DHT22;2462;51.456;7.248;2022-12-16T19:02:54;-1.50;99.90
2935;DHT22;2462;51.456;7.248;2022-12-16T19:05:38;-1.50;99.90
2935;DHT22;2462;51.456;7.248;2022-12-16T19:08:22;-1.60;99.90
2935;DHT22;2462;51.456;7.248;2022-12-16T19:11:06;-1.60;99.90
2935;DHT22;2462;51.456;7.248;2022-12-16T19:13:50;-1.60;99.90
2935;DHT22;2462;51.456;7.248;2022-12-16T19:16:34;-1.60;99.90
2935;DHT22;2462;51.456;7.248;2022-12-16T19:19:18;-1.60;99.90
2935;DHT22;2462;51.456;7.248;2022-12-16T19:22:02;-1.60;99.90
2935;DHT22;2462;51.456;7.248;2022-12-16T19:24:46;-1.60;99.90
2935;DHT22;2462;51.456;7.248;2022-12-16T19:27:31;-1.60;99.90
2935;DHT22;2462;51.456;7.248;2022-12-16T19:30:15;-1.60;99.90
2935;DHT22;2462;51.456;7.248;2022-12-16T19:32:59;-1.60;99.90
2935;DHT22;2462;51.456;7.248;2022-12-16T19:35:43;-1.60;99.90
2935;DHT22;2462;51.456;7.248;2022-12-16T19:38:27;-1.60;99.90